Kiyomaru — JK5234 — position and weather

sailwx.info

Track history (hours):
 
Tides and Currents Weather Stations Pressure Air Temp Water Temp Dewpoint Dewpoint Depression Visibility Wind Speed Wind Dir Waves Ship Positions

Kiyomaru

Last reported at 2017-Oct-19 23:27 UTC. Time now 2017-Oct-19 23:47 UTC.
Position N 34°38' E 135°01'.

Length 121 m; draft 4 m.

Type: Cargo ship. MMSI: 431400386.

Date/timePositionNaut miles runAvg speedWind from/ knotsBaromVisibWave heightAir tempDewpointWater temp
2017-Oct-19 23:27N 34°38' E 135°01'4 9.9
2017-Oct-19 23:00N 34°36' E 135°06'5 9.4
2017-Oct-19 22:30N 34°37' E 135°12'4 8.8
2017-Oct-19 22:00N 34°38' E 135°17'4 8.2
2017-Oct-19 21:30N 34°42' E 135°20'2 3.4
2017-Oct-19 21:00N 34°43' E 135°21'0 0.0
2017-Oct-19 20:30N 34°43' E 135°21'0 0.0
2017-Oct-19 19:51N 34°43' E 135°21'0 0.0
2017-Oct-19 19:24N 34°43' E 135°21'0 0.0
2017-Oct-19 18:59N 34°43' E 135°21'0 0.0
2017-Oct-19 18:30N 34°43' E 135°21'0 0.0
2017-Oct-19 18:00N 34°43' E 135°21'0 0.0
2017-Oct-19 17:30N 34°43' E 135°21'0 0.0
2017-Oct-19 17:00N 34°43' E 135°21'1 2.4
2017-Oct-19 16:30N 34°42' E 135°21'3 5.6
2017-Oct-19 16:00N 34°43' E 135°17'0 0.1
2017-Oct-19 15:30N 34°43' E 135°17'0 0.0
2017-Oct-19 15:00N 34°43' E 135°17'0 0.0
2017-Oct-19 14:30N 34°43' E 135°17'0 0.0
2017-Oct-19 14:00N 34°43' E 135°17'0 0.0
2017-Oct-19 13:30N 34°43' E 135°17'1 1.8
2017-Oct-19 13:00N 34°42' E 135°18'4 7.5
2017-Oct-19 12:30N 34°38' E 135°17'4 7.0
2017-Oct-19 12:00N 34°37' E 135°13'4 7.1
2017-Oct-19 11:30N 34°36' E 135°09'4 7.6
2017-Oct-19 11:00N 34°35' E 135°05'2 4.9
2017-Oct-19 10:30N 34°36' E 135°02'2 3.8
2017-Oct-19 09:55N 34°37' E 134°59'3 6.0
2017-Oct-19 09:23N 34°36' E 134°56'3 6.5
2017-Oct-19 08:54N 34°34' E 134°53'7 0.3
2017-Oct-18 08:36N 34°38' E 134°60'110.6
2017-Oct-18 08:30N 34°37' E 135°01'4 9.0
2017-Oct-18 08:00N 34°36' E 135°06'4 8.9
2017-Oct-18 07:30N 34°37' E 135°11'4 9.0
2017-Oct-18 07:00N 34°37' E 135°17'4 8.6
2017-Oct-18 06:30N 34°37' E 135°22'3 6.5
2017-Oct-18 06:00N 34°35' E 135°26'0 0.1
2017-Oct-18 05:30N 34°35' E 135°26'0 0.0
2017-Oct-18 05:00N 34°35' E 135°26'0 0.0
2017-Oct-18 04:30N 34°35' E 135°26'0 0.0
2017-Oct-18 03:59N 34°35' E 135°26'0 0.0
2017-Oct-18 03:30N 34°35' E 135°26'0 0.0
2017-Oct-18 03:00N 34°35' E 135°26'0 0.0
2017-Oct-18 02:30N 34°35' E 135°26'0 0.0
2017-Oct-18 02:00N 34°35' E 135°26'0 0.0
2017-Oct-18 01:30N 34°35' E 135°26'0 0.0
2017-Oct-18 01:00N 34°35' E 135°26'0 0.0
2017-Oct-18 00:30N 34°35' E 135°26'0 0.1
2017-Oct-18 00:00N 34°35' E 135°26'3 5.8
2017-Oct-17 23:30N 34°36' E 135°22'4 7.2
2017-Oct-17 23:00N 34°35' E 135°18'4 7.3
2017-Oct-17 22:30N 34°35' E 135°14'4 7.6
2017-Oct-17 22:00N 34°35' E 135°09'4 7.9
2017-Oct-17 21:30N 34°35' E 135°04'3 5.4
2017-Oct-17 21:00N 34°36' E 135°02'2 4.5
2017-Oct-17 20:29N 34°37' E 134°59'3 7.2
2017-Oct-17 20:00N 34°35' E 134°55'3 0.1
2017-Oct-16 11:44N 34°35' E 134°52'410.0
2017-Oct-16 11:23N 34°37' E 134°56'4 9.8
2017-Oct-16 11:00N 34°38' E 135°00'5 9.6
2017-Oct-16 10:30N 34°36' E 135°06'4 9.0
2017-Oct-16 10:00N 34°37' E 135°11'4 8.8
2017-Oct-16 09:30N 34°38' E 135°16'4 8.4
2017-Oct-16 09:00N 34°41' E 135°19'2 4.5
2017-Oct-16 08:30N 34°43' E 135°21'0 0.0
2017-Oct-16 08:00N 34°43' E 135°21'0 0.0
2017-Oct-16 07:23N 34°43' E 135°21'0 0.0
2017-Oct-16 06:57N 34°43' E 135°21'0 0.0
2017-Oct-16 06:30N 34°43' E 135°21'1 2.4
2017-Oct-16 06:00N 34°42' E 135°20'3 6.5
2017-Oct-16 05:30N 34°39' E 135°19'4 7.3
2017-Oct-16 05:00N 34°36' E 135°23'3 5.6
2017-Oct-16 04:30N 34°35' E 135°26'0 0.0
2017-Oct-16 04:00N 34°35' E 135°26'0 0.0
2017-Oct-16 03:30N 34°35' E 135°26'0 0.0
2017-Oct-16 03:00N 34°35' E 135°26'0 0.0
2017-Oct-16 02:30N 34°35' E 135°26'0 0.0
2017-Oct-16 02:00N 34°35' E 135°26'0 0.0
2017-Oct-16 01:30N 34°35' E 135°26'0 0.0
2017-Oct-16 01:00N 34°35' E 135°26'0 0.0
2017-Oct-16 00:30N 34°35' E 135°26'1 2.1
2017-Oct-16 00:00N 34°36' E 135°25'3 7.0
2017-Oct-15 23:30N 34°36' E 135°21'4 7.4
2017-Oct-15 23:00N 34°36' E 135°16'4 7.7
2017-Oct-15 22:30N 34°35' E 135°11'4 8.4
2017-Oct-15 22:00N 34°35' E 135°06'4 7.0
2017-Oct-15 21:30N 34°36' E 135°02'3 5.6
2017-Oct-15 20:59N 34°37' E 134°59'3 6.8
2017-Oct-15 20:30N 34°35' E 134°55'2 0.0
2017-Oct-14 06:01N 34°36' E 134°54'510.3
2017-Oct-14 05:33N 34°37' E 134°59'111.2
2017-Oct-14 05:30N 34°38' E 134°60'5 9.6
2017-Oct-14 05:00N 34°36' E 135°05'4 8.1
2017-Oct-14 04:30N 34°36' E 135°10'4 8.5
2017-Oct-14 04:00N 34°37' E 135°15'4 8.4
2017-Oct-14 03:30N 34°37' E 135°20'4 8.2
2017-Oct-14 03:00N 34°36' E 135°25'1 1.4
2017-Oct-14 02:30N 34°35' E 135°26'0 0.0
2017-Oct-14 02:00N 34°35' E 135°26'0 0.0
2017-Oct-14 01:30N 34°35' E 135°26'0 0.0
2017-Oct-14 01:00N 34°35' E 135°26'0 0.0
2017-Oct-14 00:30N 34°35' E 135°26'1 2.9
2017-Oct-14 00:00N 34°36' E 135°24'4 7.3
2017-Oct-13 23:30N 34°36' E 135°20'4 8.2
2017-Oct-13 23:00N 34°40' E 135°19'3 6.5
2017-Oct-13 22:30N 34°43' E 135°21'0 0.1
2017-Oct-13 22:00N 34°43' E 135°21'0 0.0
2017-Oct-13 21:30N 34°43' E 135°21'0 0.0
2017-Oct-13 21:00N 34°43' E 135°21'0 0.0
2017-Oct-13 20:30N 34°43' E 135°21'0 0.0
2017-Oct-13 20:00N 34°43' E 135°21'0 0.0
2017-Oct-13 19:30N 34°43' E 135°21'0 0.4
2017-Oct-13 19:00N 34°43' E 135°21'3 6.6
2017-Oct-13 18:30N 34°40' E 135°18'4 7.9
2017-Oct-13 18:00N 34°37' E 135°15'4 8.1
2017-Oct-13 17:30N 34°36' E 135°11'4 8.6
2017-Oct-13 17:00N 34°35' E 135°06'4 8.2
2017-Oct-13 16:30N 34°37' E 135°01'4 8.1
2017-Oct-13 16:00N 34°36' E 134°56'9 8.7
2017-Oct-13 14:58N 34°32' E 134°47'3 0.1
2017-Oct-12 11:12N 34°34' E 134°49'3 7.6
2017-Oct-12 10:47N 34°35' E 134°53'3 7.0
2017-Oct-12 10:21N 34°37' E 134°56'3 7.5
2017-Oct-12 09:59N 34°38' E 134°59'3 5.9
2017-Oct-12 09:30N 34°37' E 135°03'4 7.2
2017-Oct-12 09:00N 34°36' E 135°07'4 8.7
2017-Oct-12 08:30N 34°36' E 135°12'5 9.1
2017-Oct-12 08:00N 34°37' E 135°18'4 8.7
2017-Oct-12 07:30N 34°36' E 135°23'2 4.9
2017-Oct-12 07:00N 34°35' E 135°26'0 0.0
2017-Oct-12 06:21N 34°35' E 135°26'0 0.0
2017-Oct-12 05:43N 34°35' E 135°26'0 0.0
2017-Oct-12 05:30N 34°35' E 135°26'0 0.6
2017-Oct-12 05:00N 34°35' E 135°25'3 6.9
2017-Oct-12 04:30N 34°36' E 135°21'3 7.0
2017-Oct-12 04:00N 34°39' E 135°19'4 7.4
2017-Oct-12 03:30N 34°42' E 135°21'1 1.0
2017-Oct-12 02:49N 34°43' E 135°21'0 0.0
2017-Oct-12 01:45N 34°43' E 135°21'0 0.0
2017-Oct-12 01:30N 34°43' E 135°21'0 0.5
2017-Oct-12 01:00N 34°43' E 135°21'3 6.5
2017-Oct-12 00:30N 34°40' E 135°18'4 7.5
2017-Oct-12 00:00N 34°37' E 135°16'4 7.9
2017-Oct-11 23:30N 34°36' E 135°11'4 8.6
2017-Oct-11 23:00N 34°34' E 135°06'510.9
2017-Oct-11 22:30N 34°37' E 135°00'510.8
2017-Oct-11 22:00N 34°35' E 134°54'1 0.0
2017-Oct-10 12:51N 34°36' E 134°53'3 9.5
2017-Oct-10 12:30N 34°37' E 134°57'4 8.2
2017-Oct-10 12:00N 34°37' E 135°02'4 7.3
2017-Oct-10 11:30N 34°36' E 135°06'4 8.5
2017-Oct-10 11:00N 34°37' E 135°12'4 8.3
2017-Oct-10 10:30N 34°38' E 135°16'4 7.7
2017-Oct-10 10:00N 34°42' E 135°18'1 2.4
2017-Oct-10 09:30N 34°43' E 135°17'0 0.0
2017-Oct-10 09:00N 34°43' E 135°17'0 0.0
2017-Oct-10 08:30N 34°43' E 135°17'0 0.0
2017-Oct-10 08:00N 34°43' E 135°17'2 3.7
2017-Oct-10 07:30N 34°41' E 135°18'4 8.3
2017-Oct-10 07:00N 34°37' E 135°20'4 7.2
2017-Oct-10 06:30N 34°36' E 135°24'1 2.9
2017-Oct-10 06:00N 34°35' E 135°26'0 0.0
2017-Oct-10 05:30N 34°35' E 135°26'0 0.0
2017-Oct-10 04:51N 34°35' E 135°26'0 0.0
2017-Oct-10 04:30N 34°35' E 135°26'0 0.0
2017-Oct-10 03:59N 34°35' E 135°26'0 0.6
2017-Oct-10 03:30N 34°35' E 135°25'3 6.6
2017-Oct-10 03:00N 34°36' E 135°22'1 2.6
2017-Oct-10 02:28N 34°36' E 135°20'3 5.5
2017-Oct-10 02:00N 34°35' E 135°17'3 5.6
2017-Oct-10 01:30N 34°35' E 135°14'4 7.3
2017-Oct-10 01:00N 34°34' E 135°09'4 8.8
2017-Oct-10 00:30N 34°35' E 135°04'3 5.2
2017-Oct-10 00:00N 34°37' E 135°01'3 5.5
2017-Oct-09 23:30N 34°37' E 134°58'  
Track history (hours):
 
Tides and Currents Weather Stations Pressure Air Temp Water Temp Dewpoint Dewpoint Depression Visibility Wind Speed Wind Dir Waves Ship Positions

Kiyomaru

Last reported at 2017-Oct-19 23:27 UTC. Time now 2017-Oct-19 23:47 UTC.
Position N 34°38' E 135°01'.

Length 121 m; draft 4 m.

Type: Cargo ship. MMSI: 431400386.

Date/timePositionNaut miles runAvg speedWind from/ knotsBaromVisibWave heightAir tempDewpointWater temp
2017-Oct-19 23:27N 34°38' E 135°01'4 9.9
2017-Oct-19 23:00N 34°36' E 135°06'5 9.4
2017-Oct-19 22:30N 34°37' E 135°12'4 8.8
2017-Oct-19 22:00N 34°38' E 135°17'4 8.2
2017-Oct-19 21:30N 34°42' E 135°20'2 3.4
2017-Oct-19 21:00N 34°43' E 135°21'0 0.0
2017-Oct-19 20:30N 34°43' E 135°21'0 0.0
2017-Oct-19 19:51N 34°43' E 135°21'0 0.0
2017-Oct-19 19:24N 34°43' E 135°21'0 0.0
2017-Oct-19 18:59N 34°43' E 135°21'0 0.0
2017-Oct-19 18:30N 34°43' E 135°21'0 0.0
2017-Oct-19 18:00N 34°43' E 135°21'0 0.0
2017-Oct-19 17:30N 34°43' E 135°21'0 0.0
2017-Oct-19 17:00N 34°43' E 135°21'1 2.4
2017-Oct-19 16:30N 34°42' E 135°21'3 5.6
2017-Oct-19 16:00N 34°43' E 135°17'0 0.1
2017-Oct-19 15:30N 34°43' E 135°17'0 0.0
2017-Oct-19 15:00N 34°43' E 135°17'0 0.0
2017-Oct-19 14:30N 34°43' E 135°17'0 0.0
2017-Oct-19 14:00N 34°43' E 135°17'0 0.0
2017-Oct-19 13:30N 34°43' E 135°17'1 1.8
2017-Oct-19 13:00N 34°42' E 135°18'4 7.5
2017-Oct-19 12:30N 34°38' E 135°17'4 7.0
2017-Oct-19 12:00N 34°37' E 135°13'4 7.1
2017-Oct-19 11:30N 34°36' E 135°09'4 7.6
2017-Oct-19 11:00N 34°35' E 135°05'2 4.9
2017-Oct-19 10:30N 34°36' E 135°02'2 3.8
2017-Oct-19 09:55N 34°37' E 134°59'3 6.0
2017-Oct-19 09:23N 34°36' E 134°56'3 6.5
2017-Oct-19 08:54N 34°34' E 134°53'7 0.3
2017-Oct-18 08:36N 34°38' E 134°60'110.6
2017-Oct-18 08:30N 34°37' E 135°01'4 9.0
2017-Oct-18 08:00N 34°36' E 135°06'4 8.9
2017-Oct-18 07:30N 34°37' E 135°11'4 9.0
2017-Oct-18 07:00N 34°37' E 135°17'4 8.6
2017-Oct-18 06:30N 34°37' E 135°22'3 6.5
2017-Oct-18 06:00N 34°35' E 135°26'0 0.1
2017-Oct-18 05:30N 34°35' E 135°26'0 0.0
2017-Oct-18 05:00N 34°35' E 135°26'0 0.0
2017-Oct-18 04:30N 34°35' E 135°26'0 0.0
2017-Oct-18 03:59N 34°35' E 135°26'0 0.0
2017-Oct-18 03:30N 34°35' E 135°26'0 0.0
2017-Oct-18 03:00N 34°35' E 135°26'0 0.0
2017-Oct-18 02:30N 34°35' E 135°26'0 0.0
2017-Oct-18 02:00N 34°35' E 135°26'0 0.0
2017-Oct-18 01:30N 34°35' E 135°26'0 0.0
2017-Oct-18 01:00N 34°35' E 135°26'0 0.0
2017-Oct-18 00:30N 34°35' E 135°26'0 0.1
2017-Oct-18 00:00N 34°35' E 135°26'3 5.8
2017-Oct-17 23:30N 34°36' E 135°22'4 7.2
2017-Oct-17 23:00N 34°35' E 135°18'4 7.3
2017-Oct-17 22:30N 34°35' E 135°14'4 7.6
2017-Oct-17 22:00N 34°35' E 135°09'4 7.9
2017-Oct-17 21:30N 34°35' E 135°04'3 5.4
2017-Oct-17 21:00N 34°36' E 135°02'2 4.5
2017-Oct-17 20:29N 34°37' E 134°59'3 7.2
2017-Oct-17 20:00N 34°35' E 134°55'3 0.1
2017-Oct-16 11:44N 34°35' E 134°52'410.0
2017-Oct-16 11:23N 34°37' E 134°56'4 9.8
2017-Oct-16 11:00N 34°38' E 135°00'5 9.6
2017-Oct-16 10:30N 34°36' E 135°06'4 9.0
2017-Oct-16 10:00N 34°37' E 135°11'4 8.8
2017-Oct-16 09:30N 34°38' E 135°16'4 8.4
2017-Oct-16 09:00N 34°41' E 135°19'2 4.5
2017-Oct-16 08:30N 34°43' E 135°21'0 0.0
2017-Oct-16 08:00N 34°43' E 135°21'0 0.0
2017-Oct-16 07:23N 34°43' E 135°21'0 0.0
2017-Oct-16 06:57N 34°43' E 135°21'0 0.0
2017-Oct-16 06:30N 34°43' E 135°21'1 2.4
2017-Oct-16 06:00N 34°42' E 135°20'3 6.5
2017-Oct-16 05:30N 34°39' E 135°19'4 7.3
2017-Oct-16 05:00N 34°36' E 135°23'3 5.6
2017-Oct-16 04:30N 34°35' E 135°26'0 0.0
2017-Oct-16 04:00N 34°35' E 135°26'0 0.0
2017-Oct-16 03:30N 34°35' E 135°26'0 0.0
2017-Oct-16 03:00N 34°35' E 135°26'0 0.0
2017-Oct-16 02:30N 34°35' E 135°26'0 0.0
2017-Oct-16 02:00N 34°35' E 135°26'0 0.0
2017-Oct-16 01:30N 34°35' E 135°26'0 0.0
2017-Oct-16 01:00N 34°35' E 135°26'0 0.0
2017-Oct-16 00:30N 34°35' E 135°26'1 2.1
2017-Oct-16 00:00N 34°36' E 135°25'3 7.0
2017-Oct-15 23:30N 34°36' E 135°21'4 7.4
2017-Oct-15 23:00N 34°36' E 135°16'4 7.7
2017-Oct-15 22:30N 34°35' E 135°11'4 8.4
2017-Oct-15 22:00N 34°35' E 135°06'4 7.0
2017-Oct-15 21:30N 34°36' E 135°02'3 5.6
2017-Oct-15 20:59N 34°37' E 134°59'3 6.8
2017-Oct-15 20:30N 34°35' E 134°55'2 0.0
2017-Oct-14 06:01N 34°36' E 134°54'510.3
2017-Oct-14 05:33N 34°37' E 134°59'111.2
2017-Oct-14 05:30N 34°38' E 134°60'5 9.6
2017-Oct-14 05:00N 34°36' E 135°05'4 8.1
2017-Oct-14 04:30N 34°36' E 135°10'4 8.5
2017-Oct-14 04:00N 34°37' E 135°15'4 8.4
2017-Oct-14 03:30N 34°37' E 135°20'4 8.2
2017-Oct-14 03:00N 34°36' E 135°25'1 1.4
2017-Oct-14 02:30N 34°35' E 135°26'0 0.0
2017-Oct-14 02:00N 34°35' E 135°26'0 0.0
2017-Oct-14 01:30N 34°35' E 135°26'0 0.0
2017-Oct-14 01:00N 34°35' E 135°26'0 0.0
2017-Oct-14 00:30N 34°35' E 135°26'1 2.9
2017-Oct-14 00:00N 34°36' E 135°24'4 7.3
2017-Oct-13 23:30N 34°36' E 135°20'4 8.2
2017-Oct-13 23:00N 34°40' E 135°19'3 6.5
2017-Oct-13 22:30N 34°43' E 135°21'0 0.1
2017-Oct-13 22:00N 34°43' E 135°21'0 0.0
2017-Oct-13 21:30N 34°43' E 135°21'0 0.0
2017-Oct-13 21:00N 34°43' E 135°21'0 0.0
2017-Oct-13 20:30N 34°43' E 135°21'0 0.0
2017-Oct-13 20:00N 34°43' E 135°21'0 0.0
2017-Oct-13 19:30N 34°43' E 135°21'0 0.4
2017-Oct-13 19:00N 34°43' E 135°21'3 6.6
2017-Oct-13 18:30N 34°40' E 135°18'4 7.9
2017-Oct-13 18:00N 34°37' E 135°15'4 8.1
2017-Oct-13 17:30N 34°36' E 135°11'4 8.6
2017-Oct-13 17:00N 34°35' E 135°06'4 8.2
2017-Oct-13 16:30N 34°37' E 135°01'4 8.1
2017-Oct-13 16:00N 34°36' E 134°56'9 8.7
2017-Oct-13 14:58N 34°32' E 134°47'3 0.1
2017-Oct-12 11:12N 34°34' E 134°49'3 7.6
2017-Oct-12 10:47N 34°35' E 134°53'3 7.0
2017-Oct-12 10:21N 34°37' E 134°56'3 7.5
2017-Oct-12 09:59N 34°38' E 134°59'3 5.9
2017-Oct-12 09:30N 34°37' E 135°03'4 7.2
2017-Oct-12 09:00N 34°36' E 135°07'4 8.7
2017-Oct-12 08:30N 34°36' E 135°12'5 9.1
2017-Oct-12 08:00N 34°37' E 135°18'4 8.7
2017-Oct-12 07:30N 34°36' E 135°23'2 4.9
2017-Oct-12 07:00N 34°35' E 135°26'0 0.0
2017-Oct-12 06:21N 34°35' E 135°26'0 0.0
2017-Oct-12 05:43N 34°35' E 135°26'0 0.0
2017-Oct-12 05:30N 34°35' E 135°26'0 0.6
2017-Oct-12 05:00N 34°35' E 135°25'3 6.9
2017-Oct-12 04:30N 34°36' E 135°21'3 7.0
2017-Oct-12 04:00N 34°39' E 135°19'4 7.4
2017-Oct-12 03:30N 34°42' E 135°21'1 1.0
2017-Oct-12 02:49N 34°43' E 135°21'0 0.0
2017-Oct-12 01:45N 34°43' E 135°21'0 0.0
2017-Oct-12 01:30N 34°43' E 135°21'0 0.5
2017-Oct-12 01:00N 34°43' E 135°21'3 6.5
2017-Oct-12 00:30N 34°40' E 135°18'4 7.5
2017-Oct-12 00:00N 34°37' E 135°16'4 7.9
2017-Oct-11 23:30N 34°36' E 135°11'4 8.6
2017-Oct-11 23:00N 34°34' E 135°06'510.9
2017-Oct-11 22:30N 34°37' E 135°00'510.8
2017-Oct-11 22:00N 34°35' E 134°54'1 0.0
2017-Oct-10 12:51N 34°36' E 134°53'3 9.5
2017-Oct-10 12:30N 34°37' E 134°57'4 8.2
2017-Oct-10 12:00N 34°37' E 135°02'4 7.3
2017-Oct-10 11:30N 34°36' E 135°06'4 8.5
2017-Oct-10 11:00N 34°37' E 135°12'4 8.3
2017-Oct-10 10:30N 34°38' E 135°16'4 7.7
2017-Oct-10 10:00N 34°42' E 135°18'1 2.4
2017-Oct-10 09:30N 34°43' E 135°17'0 0.0
2017-Oct-10 09:00N 34°43' E 135°17'0 0.0
2017-Oct-10 08:30N 34°43' E 135°17'0 0.0
2017-Oct-10 08:00N 34°43' E 135°17'2 3.7
2017-Oct-10 07:30N 34°41' E 135°18'4 8.3
2017-Oct-10 07:00N 34°37' E 135°20'4 7.2
2017-Oct-10 06:30N 34°36' E 135°24'1 2.9
2017-Oct-10 06:00N 34°35' E 135°26'0 0.0
2017-Oct-10 05:30N 34°35' E 135°26'0 0.0
2017-Oct-10 04:51N 34°35' E 135°26'0 0.0
2017-Oct-10 04:30N 34°35' E 135°26'0 0.0
2017-Oct-10 03:59N 34°35' E 135°26'0 0.6
2017-Oct-10 03:30N 34°35' E 135°25'3 6.6
2017-Oct-10 03:00N 34°36' E 135°22'1 2.6
2017-Oct-10 02:28N 34°36' E 135°20'3 5.5
2017-Oct-10 02:00N 34°35' E 135°17'3 5.6
2017-Oct-10 01:30N 34°35' E 135°14'4 7.3
2017-Oct-10 01:00N 34°34' E 135°09'4 8.8
2017-Oct-10 00:30N 34°35' E 135°04'3 5.2
2017-Oct-10 00:00N 34°37' E 135°01'3 5.5
2017-Oct-09 23:30N 34°37' E 134°58'  

Dump ship's entire track history